Time;durP1;ratioP1;P1;durP2;ratioP2;P2;SDS_P1;SDS_P2;PMS_P1;PMS_P2;Temp;Humidity;BMP_temperature;BMP_pressure;BME280_temperature;BME280_humidity;BME280_pressure;Samples;Min_cycle;Max_cycle;Signal;HPM_P1;HPM_P2
2021/03/16 05:02:38;;;;;;;;;;;4.90;99.90;;;;;;5014464;28;19964;-67
2021/03/16 05:05:06;;;;;;;;;;;4.90;99.90;;;;;;5015658;28;19926;-67
2021/03/16 05:07:33;;;;;;;;;;;4.90;99.90;;;;;;5031305;23;19926;-68
2021/03/16 05:09:59;;;;;;;;;;;5.00;99.90;;;;;;5017210;28;19925;-68
2021/03/16 05:12:25;;;;;;;;;;;5.00;99.90;;;;;;5016892;28;19925;-68
2021/03/16 05:14:51;;;;;;;;;;;4.90;99.90;;;;;;5025893;28;19933;-67
2021/03/16 05:17:17;;;;;;;;;;;5.00;99.90;;;;;;5038666;28;19943;-67
2021/03/16 05:19:44;;;;;;;;;;;5.00;99.90;;;;;;5023169;28;19960;-68
2021/03/16 05:22:10;;;;;;;;;;;5.00;99.90;;;;;;5023062;28;19929;-68
2021/03/16 05:24:36;;;;;;;;;;;5.10;99.90;;;;;;5023085;28;19955;-67
2021/03/16 05:27:02;;;;;;;;;;;5.10;99.90;;;;;;5021947;28;20068;-66
2021/03/16 05:29:28;;;;;;;;;;;5.10;99.90;;;;;;5018895;28;19975;-67
2021/03/16 05:31:54;;;;;;;;;;;5.10;99.90;;;;;;5019125;28;19926;-68
2021/03/16 05:34:20;;;;;;;;;;;5.10;99.90;;;;;;5019523;28;19925;-66
2021/03/16 05:36:47;;;;;;;;;;;5.10;99.90;;;;;;5025937;28;19926;-68
2021/03/16 05:39:13;;;;;;;;;;;5.00;99.90;;;;;;5022075;28;19932;-67
2021/03/16 05:41:41;;;;;;;;;;;5.00;99.90;;;;;;5019015;28;19984;-67
2021/03/16 05:44:07;;;;;;;;;;;5.00;99.90;;;;;;5018354;28;19930;-67
2021/03/16 05:46:35;;;;;;;;;;;5.00;99.90;;;;;;5018555;28;19926;-67
2021/03/16 05:49:02;;;;;;;;;;;5.00;99.90;;;;;;5018652;28;19933;-67
2021/03/16 05:51:28;;;;;;;;;;;5.10;99.90;;;;;;5018440;28;19925;-66
2021/03/16 05:53:55;;;;;;;;;;;5.00;99.90;;;;;;5017470;28;19925;-67
2021/03/16 05:56:22;;;;;;;;;;;5.00;99.90;;;;;;5015667;28;19975;-67
2021/03/16 05:58:48;;;;;;;;;;;5.00;99.90;;;;;;5015304;28;19926;-68
2021/03/16 06:01:16;;;;;;;;;;;5.00;99.90;;;;;;5015293;28;19925;-68
2021/03/16 06:03:42;;;;;;;;;;;5.00;99.90;;;;;;5015644;28;19932;-68
2021/03/16 06:06:08;;;;;;;;;;;5.00;99.90;;;;;;5015781;28;19948;-68
2021/03/16 06:08:34;;;;;;;;;;;5.10;99.90;;;;;;5015411;28;20376;-67
2021/03/16 06:11:01;;;;;;;;;;;5.10;99.90;;;;;;5019698;28;19949;-68
2021/03/16 06:13:27;;;;;;;;;;;5.10;99.90;;;;;;5024975;28;19926;-68
2021/03/16 06:15:53;;;;;;;;;;;5.10;99.90;;;;;;5029886;28;19934;-68
2021/03/16 06:18:26;;;;;;;;;;;5.10;99.90;;;;;;5024590;28;19932;-67
2021/03/16 06:20:59;;;;;;;;;;;5.10;99.90;;;;;;5019861;28;19948;-67
2021/03/16 06:23:29;;;;;;;;;;;5.10;99.90;;;;;;5019309;28;19993;-68
2021/03/16 06:25:55;;;;;;;;;;;5.10;99.90;;;;;;5018885;28;19948;-67
2021/03/16 06:28:29;;;;;;;;;;;5.10;99.90;;;;;;5018715;28;19932;-67
2021/03/16 06:30:55;;;;;;;;;;;5.20;99.90;;;;;;5018062;28;20253;-68
2021/03/16 06:33:22;;;;;;;;;;;5.20;99.90;;;;;;5017405;28;19925;-68
2021/03/16 06:35:58;;;;;;;;;;;5.20;99.90;;;;;;5015103;28;19926;-67
2021/03/16 06:38:24;;;;;;;;;;;5.20;99.90;;;;;;5014620;28;20029;-68
2021/03/16 06:40:51;;;;;;;;;;;5.20;99.90;;;;;;5014479;28;19932;-67
2021/03/16 06:43:17;;;;;;;;;;;5.20;99.90;;;;;;5014672;28;20005;-67
2021/03/16 06:45:50;;;;;;;;;;;5.30;99.90;;;;;;5015055;28;19929;-68
2021/03/16 06:48:16;;;;;;;;;;;5.30;99.90;;;;;;5014681;28;19928;-68
2021/03/16 06:50:43;;;;;;;;;;;5.30;99.90;;;;;;5015297;28;19926;-68
2021/03/16 06:53:25;;;;;;;;;;;5.40;99.90;;;;;;5014571;28;19926;-67
2021/03/16 06:55:52;;;;;;;;;;;5.40;99.90;;;;;;5015059;28;19926;-68
2021/03/16 06:58:21;;;;;;;;;;;5.40;99.90;;;;;;5014658;28;19932;-68
2021/03/16 07:00:49;;;;;;;;;;;5.40;99.90;;;;;;5015156;28;19925;-68
2021/03/16 07:03:15;;;;;;;;;;;5.20;99.90;;;;;;5014452;28;19926;-68
2021/03/16 07:05:41;;;;;;;;;;;5.30;99.90;;;;;;5014197;28;19926;-67
2021/03/16 07:08:07;;;;;;;;;;;5.30;99.90;;;;;;5014456;28;19929;-69
2021/03/16 07:10:34;;;;;;;;;;;5.30;99.90;;;;;;5017174;28;19980;-68
2021/03/16 07:13:01;;;;;;;;;;;5.30;99.90;;;;;;5019107;28;19926;-67
2021/03/16 07:15:28;;;;;;;;;;;5.20;99.90;;;;;;5014668;28;19926;-68
2021/03/16 07:17:55;;;;;;;;;;;5.10;99.90;;;;;;5014622;28;19925;-67
2021/03/16 07:20:22;;;;;;;;;;;5.10;99.90;;;;;;5014610;28;19932;-69
2021/03/16 07:22:49;;;;;;;;;;;5.10;99.90;;;;;;5014880;28;19932;-68
2021/03/16 07:25:16;;;;;;;;;;;4.90;99.90;;;;;;5016590;28;20376;-68
2021/03/16 07:27:42;;;;;;;;;;;4.80;99.90;;;;;;5018355;28;19926;-68
2021/03/16 07:30:08;;;;;;;;;;;4.70;99.90;;;;;;5017973;28;20392;-68
2021/03/16 07:32:35;;;;;;;;;;;4.70;99.90;;;;;;5018403;28;20273;-69
2021/03/16 07:35:03;;;;;;;;;;;4.80;99.90;;;;;;5018325;28;19926;-68
2021/03/16 07:37:29;;;;;;;;;;;4.80;99.90;;;;;;5018009;28;19925;-70
2021/03/16 07:40:00;;;;;;;;;;;4.80;99.90;;;;;;5018098;28;19929;-68
2021/03/16 07:42:26;;;;;;;;;;;4.90;99.90;;;;;;5019446;28;19925;-69
2021/03/16 07:44:52;;;;;;;;;;;4.90;99.90;;;;;;5021874;28;19926;-70
2021/03/16 07:47:18;;;;;;;;;;;5.00;99.90;;;;;;5021766;28;19932;-65
2021/03/16 07:49:44;;;;;;;;;;;5.10;99.90;;;;;;5019525;28;20323;-67
2021/03/16 07:52:18;;;;;;;;;;;5.20;99.90;;;;;;5019419;28;19925;-65
2021/03/16 07:54:46;;;;;;;;;;;5.50;99.90;;;;;;5018192;28;19980;-69
2021/03/16 07:57:12;;;;;;;;;;;5.60;99.90;;;;;;5017490;28;20020;-69
2021/03/16 07:59:38;;;;;;;;;;;5.70;99.90;;;;;;5017603;28;19925;-69
2021/03/16 08:02:04;;;;;;;;;;;5.70;99.90;;;;;;5017334;28;20384;-69
2021/03/16 08:04:34;;;;;;;;;;;5.80;99.90;;;;;;5018020;28;19937;-69
2021/03/16 08:07:01;;;;;;;;;;;5.60;99.90;;;;;;5016809;28;19949;-69
2021/03/16 08:09:28;;;;;;;;;;;5.50;99.90;;;;;;5017481;28;19925;-69
2021/03/16 08:11:54;;;;;;;;;;;5.50;99.90;;;;;;5017779;28;19975;-69
2021/03/16 08:14:23;;;;;;;;;;;5.50;99.90;;;;;;5017325;28;20389;-69
2021/03/16 08:16:49;;;;;;;;;;;5.50;99.90;;;;;;5017219;28;19944;-68
2021/03/16 08:19:18;;;;;;;;;;;5.40;99.90;;;;;;5017133;28;19925;-70
2021/03/16 08:21:45;;;;;;;;;;;5.40;99.90;;;;;;5016996;28;19929;-71
2021/03/16 08:24:12;;;;;;;;;;;5.40;99.90;;;;;;5020140;28;19925;-71
2021/03/16 08:26:45;;;;;;;;;;;5.40;99.90;;;;;;5019965;28;19988;-70
2021/03/16 08:29:12;;;;;;;;;;;5.50;99.90;;;;;;5020767;28;19926;-70
2021/03/16 08:31:38;;;;;;;;;;;5.50;99.90;;;;;;5018874;28;19929;-70
2021/03/16 08:34:06;;;;;;;;;;;5.50;99.90;;;;;;5021158;28;19925;-70
2021/03/16 08:36:33;;;;;;;;;;;5.60;99.90;;;;;;5017639;28;20331;-70
2021/03/16 08:38:59;;;;;;;;;;;5.70;99.90;;;;;;5017676;28;19925;-70
2021/03/16 08:41:25;;;;;;;;;;;5.70;99.90;;;;;;5016814;28;19926;-69
2021/03/16 08:43:52;;;;;;;;;;;5.70;99.90;;;;;;5017109;28;19997;-69
2021/03/16 08:46:27;;;;;;;;;;;5.80;99.90;;;;;;5019523;28;19932;-69
2021/03/16 08:48:53;;;;;;;;;;;5.80;99.90;;;;;;5024403;28;19929;-70
2021/03/16 08:51:21;;;;;;;;;;;6.00;99.90;;;;;;5030974;28;19948;-71
2021/03/16 08:53:47;;;;;;;;;;;6.00;99.90;;;;;;5027245;28;20292;-71
2021/03/16 08:56:18;;;;;;;;;;;6.00;99.90;;;;;;5019443;28;19933;-70
2021/03/16 08:58:44;;;;;;;;;;;6.10;99.90;;;;;;5020819;28;19933;-70
2021/03/16 09:01:11;;;;;;;;;;;6.10;99.90;;;;;;5020279;28;19948;-70
2021/03/16 09:03:37;;;;;;;;;;;6.00;99.90;;;;;;5022076;28;19993;-70
2021/03/16 09:06:04;;;;;;;;;;;6.00;99.90;;;;;;5019828;28;19929;-70
2021/03/16 09:08:30;;;;;;;;;;;6.10;99.90;;;;;;5020439;28;19932;-70
2021/03/16 09:10:56;;;;;;;;;;;6.20;99.90;;;;;;5021473;28;20399;-70
2021/03/16 09:13:26;;;;;;;;;;;6.30;99.90;;;;;;5021679;28;19925;-71
2021/03/16 09:15:52;;;;;;;;;;;6.40;99.90;;;;;;5019735;28;19925;-69
2021/03/16 09:18:20;;;;;;;;;;;6.60;99.90;;;;;;5018757;28;19976;-70
2021/03/16 09:20:46;;;;;;;;;;;6.70;99.90;;;;;;5018297;28;19926;-69
2021/03/16 09:23:13;;;;;;;;;;;6.90;99.90;;;;;;5018504;28;19933;-69
2021/03/16 09:25:40;;;;;;;;;;;7.00;99.90;;;;;;5018352;28;19926;-70
2021/03/16 09:28:07;;;;;;;;;;;7.00;99.90;;;;;;5018014;28;19930;-71
2021/03/16 09:30:34;;;;;;;;;;;7.00;99.90;;;;;;5017652;28;19936;-69
2021/03/16 09:33:00;;;;;;;;;;;7.10;99.90;;;;;;5017950;28;19926;-69
2021/03/16 09:35:27;;;;;;;;;;;7.10;99.90;;;;;;5018288;28;19925;-70
2021/03/16 09:37:54;;;;;;;;;;;7.10;99.90;;;;;;5017690;28;19929;-72
2021/03/16 09:40:28;;;;;;;;;;;7.00;99.90;;;;;;5018262;28;20012;-70
2021/03/16 09:42:55;;;;;;;;;;;7.10;99.90;;;;;;5017934;28;19979;-70
2021/03/16 09:45:22;;;;;;;;;;;7.00;99.90;;;;;;5017772;28;20372;-69
2021/03/16 09:47:49;;;;;;;;;;;7.00;99.90;;;;;;5016647;28;19926;-69
2021/03/16 09:50:18;;;;;;;;;;;6.90;99.90;;;;;;5016960;28;19941;-68
2021/03/16 09:52:46;;;;;;;;;;;6.70;99.90;;;;;;5017262;28;19952;-68
2021/03/16 09:55:12;;;;;;;;;;;6.40;99.90;;;;;;5018463;28;19926;-69
2021/03/16 09:57:39;;;;;;;;;;;6.40;99.90;;;;;;5018082;28;19926;-68
2021/03/16 10:00:07;;;;;;;;;;;6.40;99.90;;;;;;5017453;28;20398;-70
2021/03/16 10:02:34;;;;;;;;;;;6.40;99.90;;;;;;5018087;28;19926;-70
2021/03/16 10:05:05;;;;;;;;;;;6.40;99.90;;;;;;5017190;28;20377;-69
2021/03/16 10:07:31;;;;;;;;;;;6.40;99.90;;;;;;5016769;28;19948;-69
2021/03/16 10:10:06;;;;;;;;;;;6.50;99.90;;;;;;5016978;28;19926;-69
2021/03/16 10:12:32;;;;;;;;;;;6.60;99.90;;;;;;5016711;28;19925;-69
2021/03/16 10:14:58;;;;;;;;;;;6.50;99.90;;;;;;5016792;28;19933;-70
2021/03/16 10:17:25;;;;;;;;;;;6.60;99.90;;;;;;5016888;28;19925;-69
2021/03/16 10:19:52;;;;;;;;;;;6.60;99.90;;;;;;5017132;28;19926;-69
2021/03/16 10:22:18;;;;;;;;;;;6.70;99.90;;;;;;5017108;28;19933;-70
2021/03/16 10:24:44;;;;;;;;;;;6.60;99.90;;;;;;5017576;28;19933;-70
2021/03/16 10:27:11;;;;;;;;;;;6.60;99.90;;;;;;5016977;28;19925;-70
2021/03/16 10:29:37;;;;;;;;;;;6.70;99.90;;;;;;5017899;28;19932;-69
2021/03/16 10:32:04;;;;;;;;;;;6.80;99.90;;;;;;5018048;28;19930;-70
2021/03/16 10:34:30;;;;;;;;;;;6.80;99.90;;;;;;5026902;28;19933;-70
2021/03/16 10:36:56;;;;;;;;;;;7.00;99.90;;;;;;5021815;28;19960;-70
2021/03/16 10:39:22;;;;;;;;;;;7.00;99.90;;;;;;5017452;28;19930;-69
2021/03/16 10:41:48;;;;;;;;;;;7.10;99.90;;;;;;5017100;28;19926;-70
2021/03/16 10:44:15;;;;;;;;;;;7.20;99.90;;;;;;5022397;28;19933;-70
2021/03/16 10:46:41;;;;;;;;;;;7.30;99.90;;;;;;5023823;28;19925;-70
2021/03/16 10:49:07;;;;;;;;;;;7.10;99.90;;;;;;5025097;28;19937;-69
2021/03/16 10:51:33;;;;;;;;;;;7.20;99.90;;;;;;5022001;28;19929;-69
2021/03/16 10:53:59;;;;;;;;;;;7.40;99.90;;;;;;5022710;28;19926;-70
2021/03/16 10:56:25;;;;;;;;;;;7.50;99.90;;;;;;5019774;28;19925;-69
2021/03/16 10:58:51;;;;;;;;;;;7.60;99.90;;;;;;5021199;28;19925;-70
2021/03/16 11:01:18;;;;;;;;;;;7.60;99.90;;;;;;5022478;28;19925;-69
2021/03/16 11:03:44;;;;;;;;;;;7.70;99.90;;;;;;5021823;28;19980;-69
2021/03/16 11:06:10;;;;;;;;;;;7.90;99.90;;;;;;5022051;28;19933;-70
2021/03/16 11:08:36;;;;;;;;;;;8.10;99.90;;;;;;5052143;23;19959;-64
2021/03/16 11:11:02;;;;;;;;;;;8.20;99.90;;;;;;5046220;28;20344;-65
2021/03/16 11:13:28;;;;;;;;;;;8.20;99.90;;;;;;5046536;28;20402;-65
2021/03/16 11:15:54;;;;;;;;;;;8.20;99.90;;;;;;5040161;28;20307;-65
2021/03/16 11:18:21;;;;;;;;;;;8.20;99.90;;;;;;5039508;28;19975;-64
2021/03/16 11:20:47;;;;;;;;;;;8.10;99.90;;;;;;5038570;28;19932;-65
2021/03/16 11:23:13;;;;;;;;;;;8.00;99.90;;;;;;5038361;28;19932;-66
2021/03/16 11:25:39;;;;;;;;;;;8.10;99.90;;;;;;5038400;28;19925;-65
2021/03/16 11:28:05;;;;;;;;;;;8.10;99.90;;;;;;5037611;28;19925;-66
2021/03/16 11:30:32;;;;;;;;;;;8.00;99.90;;;;;;5037926;28;19932;-65
2021/03/16 11:32:58;;;;;;;;;;;7.90;99.90;;;;;;5037160;28;19972;-65
2021/03/16 11:35:25;;;;;;;;;;;7.70;99.90;;;;;;5037296;28;20295;-65
2021/03/16 11:37:51;;;;;;;;;;;7.70;99.90;;;;;;5036952;28;19932;-65
2021/03/16 11:40:17;;;;;;;;;;;7.80;99.90;;;;;;5037466;28;19925;-65
2021/03/16 11:42:43;;;;;;;;;;;7.70;99.90;;;;;;5037159;28;20213;-66
2021/03/16 11:45:10;;;;;;;;;;;7.70;99.90;;;;;;5037140;28;19925;-66
2021/03/16 11:47:36;;;;;;;;;;;7.40;99.90;;;;;;5036747;28;19929;-65
2021/03/16 11:50:03;;;;;;;;;;;7.30;99.90;;;;;;5037236;28;19960;-66
2021/03/16 11:52:30;;;;;;;;;;;7.20;99.90;;;;;;5036931;28;19932;-65
2021/03/16 11:54:56;;;;;;;;;;;7.10;99.90;;;;;;5037319;28;19929;-65
2021/03/16 11:57:22;;;;;;;;;;;7.10;99.90;;;;;;5037028;28;19925;-65
2021/03/16 11:59:48;;;;;;;;;;;7.00;99.90;;;;;;5037382;28;19948;-64
2021/03/16 12:02:14;;;;;;;;;;;7.00;99.90;;;;;;5036827;28;19929;-66
2021/03/16 12:04:40;;;;;;;;;;;6.90;99.90;;;;;;5036657;28;19925;-65
2021/03/16 12:07:06;;;;;;;;;;;7.00;99.90;;;;;;5036720;28;19929;-67
2021/03/16 12:09:33;;;;;;;;;;;7.10;99.90;;;;;;5036242;28;19926;-65
2021/03/16 12:11:59;;;;;;;;;;;7.20;99.90;;;;;;5037150;28;20288;-66
2021/03/16 12:14:25;;;;;;;;;;;7.30;99.90;;;;;;5036283;28;20329;-66
2021/03/16 12:16:51;;;;;;;;;;;7.50;99.90;;;;;;5036299;28;20364;-66
2021/03/16 12:19:17;;;;;;;;;;;7.70;99.90;;;;;;5037077;28;19951;-66
2021/03/16 12:21:43;;;;;;;;;;;7.80;99.90;;;;;;5037286;28;19925;-64
2021/03/16 12:24:10;;;;;;;;;;;8.00;99.90;;;;;;5036480;28;19925;-69
2021/03/16 12:26:39;;;;;;;;;;;8.30;99.90;;;;;;5036248;28;20026;-66
2021/03/16 12:29:05;;;;;;;;;;;8.40;99.90;;;;;;5036018;28;19976;-66
2021/03/16 12:31:31;;;;;;;;;;;8.50;99.90;;;;;;5036385;28;19983;-65
2021/03/16 12:33:58;;;;;;;;;;;8.50;99.90;;;;;;5036160;28;19932;-65
2021/03/16 12:36:24;;;;;;;;;;;8.40;99.90;;;;;;5036268;28;19925;-66
2021/03/16 12:38:50;;;;;;;;;;;8.30;99.90;;;;;;5036102;28;19932;-66
2021/03/16 12:41:16;;;;;;;;;;;8.40;99.90;;;;;;5036137;28;19979;-65
2021/03/16 12:43:43;;;;;;;;;;;8.30;99.90;;;;;;5036099;28;19971;-64
2021/03/16 12:46:09;;;;;;;;;;;8.50;99.90;;;;;;5035966;28;19971;-65
2021/03/16 12:48:35;;;;;;;;;;;8.50;99.90;;;;;;5035393;28;19925;-66
2021/03/16 12:51:01;;;;;;;;;;;8.60;99.90;;;;;;5035792;28;19925;-66
2021/03/16 12:53:27;;;;;;;;;;;8.60;99.90;;;;;;5035940;28;19926;-66
2021/03/16 12:55:53;;;;;;;;;;;8.70;99.90;;;;;;5035680;28;19933;-65
2021/03/16 12:58:19;;;;;;;;;;;8.80;99.90;;;;;;5036095;28;19932;-66
2021/03/16 13:00:46;;;;;;;;;;;8.80;99.90;;;;;;5035478;28;19931;-65
2021/03/16 13:03:12;;;;;;;;;;;8.80;99.90;;;;;;5035582;28;19925;-65
2021/03/16 13:05:38;;;;;;;;;;;8.70;99.90;;;;;;5035426;28;19925;-65
2021/03/16 13:08:04;;;;;;;;;;;8.80;99.90;;;;;;5035112;28;19932;-65
2021/03/16 13:10:31;;;;;;;;;;;8.80;99.90;;;;;;5035121;28;20375;-65
2021/03/16 13:12:57;;;;;;;;;;;8.80;99.90;;;;;;5035904;28;19929;-65
2021/03/16 13:15:23;;;;;;;;;;;8.80;99.90;;;;;;5035240;28;19925;-65
2021/03/16 13:17:50;;;;;;;;;;;8.70;99.90;;;;;;5034998;28;19925;-65
2021/03/16 13:20:16;;;;;;;;;;;8.70;99.90;;;;;;5035409;28;19925;-65
2021/03/16 13:22:42;;;;;;;;;;;8.60;99.90;;;;;;5035620;28;19932;-66
2021/03/16 13:25:08;;;;;;;;;;;8.50;99.90;;;;;;5034434;28;20399;-66
2021/03/16 13:27:34;;;;;;;;;;;8.30;99.90;;;;;;5034885;28;19925;-66
2021/03/16 13:30:00;;;;;;;;;;;8.30;99.90;;;;;;5035682;28;19925;-66
2021/03/16 13:32:26;;;;;;;;;;;8.40;99.90;;;;;;5034749;28;19929;-65
2021/03/16 13:34:53;;;;;;;;;;;8.50;99.90;;;;;;5034764;28;20272;-66
2021/03/16 13:37:19;;;;;;;;;;;8.50;99.90;;;;;;5034648;28;19995;-66
2021/03/16 13:39:45;;;;;;;;;;;8.50;99.90;;;;;;5034591;28;20376;-66
2021/03/16 13:42:11;;;;;;;;;;;8.40;99.90;;;;;;5034833;28;19925;-64
2021/03/16 13:44:38;;;;;;;;;;;8.50;99.90;;;;;;5034399;28;19931;-64
2021/03/16 13:47:04;;;;;;;;;;;8.60;99.90;;;;;;5034722;28;20051;-65
2021/03/16 13:49:30;;;;;;;;;;;8.60;99.90;;;;;;5034851;28;19925;-65
2021/03/16 13:51:57;;;;;;;;;;;8.60;99.90;;;;;;5034670;28;19930;-65
2021/03/16 13:54:24;;;;;;;;;;;8.50;99.90;;;;;;5034709;28;19932;-65
2021/03/16 13:56:50;;;;;;;;;;;8.50;99.90;;;;;;5034641;28;19948;-64
2021/03/16 13:59:16;;;;;;;;;;;8.40;99.90;;;;;;5034826;28;19925;-65
2021/03/16 14:01:42;;;;;;;;;;;8.40;99.90;;;;;;5034505;28;19926;-64
2021/03/16 14:04:08;;;;;;;;;;;8.40;99.90;;;;;;5034214;28;19932;-64
2021/03/16 14:06:34;;;;;;;;;;;8.50;99.90;;;;;;5034444;28;19925;-65
2021/03/16 14:09:01;;;;;;;;;;;8.70;99.90;;;;;;5034211;28;20326;-64
2021/03/16 14:11:27;;;;;;;;;;;8.80;99.90;;;;;;5034690;28;19925;-65
2021/03/16 14:13:53;;;;;;;;;;;9.00;99.90;;;;;;5034407;28;20300;-65
2021/03/16 14:16:19;;;;;;;;;;;9.10;99.90;;;;;;5037151;28;19925;-65
2021/03/16 14:18:45;;;;;;;;;;;9.40;99.90;;;;;;5034628;28;19929;-65
2021/03/16 14:21:11;;;;;;;;;;;9.60;99.90;;;;;;5034434;28;19925;-65
2021/03/16 14:23:37;;;;;;;;;;;9.80;99.90;;;;;;5034257;28;19926;-67
2021/03/16 14:26:04;;;;;;;;;;;9.80;99.90;;;;;;5033995;28;19925;-65
2021/03/16 14:28:31;;;;;;;;;;;9.90;99.90;;;;;;5033933;28;19925;-65
2021/03/16 14:30:57;;;;;;;;;;;9.90;99.90;;;;;;5034038;28;20292;-65
2021/03/16 14:33:23;;;;;;;;;;;10.00;99.90;;;;;;5033738;28;20354;-65
2021/03/16 14:35:49;;;;;;;;;;;9.90;99.90;;;;;;5034005;28;19933;-66
2021/03/16 14:38:15;;;;;;;;;;;9.90;99.90;;;;;;5033827;28;19984;-66
2021/03/16 14:40:41;;;;;;;;;;;9.80;99.90;;;;;;5033987;28;19940;-66
2021/03/16 14:43:08;;;;;;;;;;;10.00;99.90;;;;;;5033869;28;19929;-66
2021/03/16 14:45:34;;;;;;;;;;;10.20;99.90;;;;;;5033469;28;19926;-65
2021/03/16 14:48:00;;;;;;;;;;;10.40;99.90;;;;;;5033868;28;19925;-66
2021/03/16 14:50:26;;;;;;;;;;;10.50;99.90;;;;;;5033819;28;19933;-65
2021/03/16 14:52:52;;;;;;;;;;;10.50;99.90;;;;;;5033890;28;19925;-66
2021/03/16 14:55:18;;;;;;;;;;;10.50;99.90;;;;;;5033815;28;19929;-65
2021/03/16 14:57:44;;;;;;;;;;;10.50;99.90;;;;;;5033340;28;19926;-65
2021/03/16 15:00:11;;;;;;;;;;;10.50;99.90;;;;;;5033779;28;19932;-65
2021/03/16 15:02:37;;;;;;;;;;;10.40;99.90;;;;;;5033442;28;19933;-65
2021/03/16 15:05:04;;;;;;;;;;;10.20;99.90;;;;;;5033325;28;19925;-63
2021/03/16 15:07:30;;;;;;;;;;;10.10;99.90;;;;;;5033703;28;20361;-66
2021/03/16 15:09:56;;;;;;;;;;;10.30;99.90;;;;;;5033923;28;20331;-66
2021/03/16 15:12:22;;;;;;;;;;;10.50;99.90;;;;;;5033301;28;19932;-66
2021/03/16 15:14:48;;;;;;;;;;;10.80;99.90;;;;;;5033696;28;19955;-65
2021/03/16 15:17:15;;;;;;;;;;;10.80;99.90;;;;;;5033583;28;19932;-65
2021/03/16 15:19:41;;;;;;;;;;;10.80;99.90;;;;;;5033236;28;19933;-64
2021/03/16 15:22:07;;;;;;;;;;;10.60;99.90;;;;;;5033482;28;19929;-64
2021/03/16 15:24:33;;;;;;;;;;;10.50;99.90;;;;;;5033475;28;19925;-64
2021/03/16 15:26:59;;;;;;;;;;;10.30;99.90;;;;;;5033249;28;19925;-64
2021/03/16 15:29:25;;;;;;;;;;;10.00;99.90;;;;;;5033577;28;20358;-64
2021/03/16 15:31:51;;;;;;;;;;;10.00;99.90;;;;;;5033234;28;20399;-66
2021/03/16 15:34:18;;;;;;;;;;;9.80;99.90;;;;;;5033393;28;20311;-65
2021/03/16 15:36:44;;;;;;;;;;;9.50;99.90;;;;;;5033739;28;19925;-65
2021/03/16 15:39:10;;;;;;;;;;;9.40;99.90;;;;;;5033636;28;19933;-65
2021/03/16 15:41:36;;;;;;;;;;;9.40;99.90;;;;;;5033580;28;19932;-65
2021/03/16 15:44:02;;;;;;;;;;;9.40;99.90;;;;;;5033641;28;19932;-65
2021/03/16 15:46:29;;;;;;;;;;;9.30;99.90;;;;;;5036172;28;19925;-65
2021/03/16 15:48:55;;;;;;;;;;;9.50;99.90;;;;;;5036709;28;20272;-67
2021/03/16 15:51:22;;;;;;;;;;;9.80;99.90;;;;;;5037551;28;19996;-66
2021/03/16 15:53:48;;;;;;;;;;;9.90;99.90;;;;;;5037010;28;19925;-67
2021/03/16 15:56:14;;;;;;;;;;;10.10;99.90;;;;;;5037261;28;20276;-68
2021/03/16 15:58:40;;;;;;;;;;;10.30;99.90;;;;;;5036796;28;19925;-67
2021/03/16 16:01:06;;;;;;;;;;;10.40;99.90;;;;;;5036842;28;19932;-67
2021/03/16 16:03:32;;;;;;;;;;;10.50;99.90;;;;;;5036294;28;19925;-66
2021/03/16 16:05:58;;;;;;;;;;;10.50;99.90;;;;;;5036774;28;19940;-65
2021/03/16 16:08:25;;;;;;;;;;;10.50;99.90;;;;;;5036496;28;19947;-63
2021/03/16 16:10:51;;;;;;;;;;;10.40;99.90;;;;;;5036558;28;20422;-65
2021/03/16 16:13:17;;;;;;;;;;;10.30;99.90;;;;;;5036381;28;19940;-65
2021/03/16 16:15:43;;;;;;;;;;;10.10;99.90;;;;;;5039412;28;19925;-65
2021/03/16 16:18:10;;;;;;;;;;;9.90;99.90;;;;;;5043247;28;20368;-64
2021/03/16 16:20:36;;;;;;;;;;;9.70;99.90;;;;;;5043869;28;19925;-65
2021/03/16 16:23:02;;;;;;;;;;;9.20;99.90;;;;;;5038641;28;19934;-64
2021/03/16 16:25:29;;;;;;;;;;;8.80;99.90;;;;;;5037289;28;19948;-64
2021/03/16 16:27:55;;;;;;;;;;;8.40;99.90;;;;;;5036889;28;19929;-64
2021/03/16 16:30:22;;;;;;;;;;;8.10;99.90;;;;;;5036780;28;19933;-65
2021/03/16 16:32:48;;;;;;;;;;;7.70;99.90;;;;;;5036449;28;19925;-65
2021/03/16 16:35:14;;;;;;;;;;;7.50;99.90;;;;;;5036560;28;19932;-64
2021/03/16 16:37:40;;;;;;;;;;;7.30;99.90;;;;;;5036256;28;19925;-65
2021/03/16 16:40:07;;;;;;;;;;;7.10;99.90;;;;;;5035873;28;20402;-65
2021/03/16 16:42:34;;;;;;;;;;;6.90;99.90;;;;;;5035863;28;19925;-65
2021/03/16 16:45:00;;;;;;;;;;;6.60;99.90;;;;;;5036234;28;20010;-64
2021/03/16 16:47:26;;;;;;;;;;;6.40;99.90;;;;;;5036303;28;20133;-65
2021/03/16 16:49:52;;;;;;;;;;;6.30;99.90;;;;;;5036032;28;20011;-64
2021/03/16 16:52:18;;;;;;;;;;;6.20;99.90;;;;;;5035739;28;20379;-64
2021/03/16 16:54:44;;;;;;;;;;;6.10;99.90;;;;;;5035837;28;20292;-65
2021/03/16 16:57:10;;;;;;;;;;;6.00;99.90;;;;;;5035197;28;19925;-65
2021/03/16 16:59:37;;;;;;;;;;;6.00;99.90;;;;;;5036402;28;19929;-66
2021/03/16 17:02:03;;;;;;;;;;;6.00;99.90;;;;;;5036000;28;19932;-65
2021/03/16 17:04:29;;;;;;;;;;;5.90;99.90;;;;;;5035496;28;20011;-65
2021/03/16 17:06:56;;;;;;;;;;;5.90;99.90;;;;;;5035748;28;19929;-64
2021/03/16 17:09:22;;;;;;;;;;;5.90;99.90;;;;;;5035465;28;19925;-64
2021/03/16 17:11:48;;;;;;;;;;;6.00;99.90;;;;;;5035647;28;19925;-64
2021/03/16 17:14:14;;;;;;;;;;;5.90;99.90;;;;;;5035503;28;19925;-64
2021/03/16 17:16:41;;;;;;;;;;;5.70;99.90;;;;;;5035105;28;20273;-64
2021/03/16 17:19:07;;;;;;;;;;;5.80;99.90;;;;;;5035401;28;20019;-63
2021/03/16 17:21:33;;;;;;;;;;;5.80;99.90;;;;;;5035423;28;20338;-64
2021/03/16 17:23:59;;;;;;;;;;;5.60;99.90;;;;;;5035052;28;20268;-64
2021/03/16 17:26:25;;;;;;;;;;;5.70;99.90;;;;;;5035031;28;19925;-64
2021/03/16 17:28:51;;;;;;;;;;;5.60;99.90;;;;;;5034883;28;19925;-63
2021/03/16 17:31:18;;;;;;;;;;;5.70;99.90;;;;;;5035246;28;20330;-63
2021/03/16 17:33:44;;;;;;;;;;;5.70;99.90;;;;;;5035356;28;20015;-64
2021/03/16 17:36:11;;;;;;;;;;;5.70;99.90;;;;;;5035176;28;19925;-63
2021/03/16 17:38:37;;;;;;;;;;;5.80;99.90;;;;;;5034770;28;20387;-64
2021/03/16 17:41:03;;;;;;;;;;;5.80;99.90;;;;;;5034975;28;19932;-63
2021/03/16 17:43:29;;;;;;;;;;;5.80;99.90;;;;;;5034516;28;20316;-65
2021/03/16 17:45:55;;;;;;;;;;;5.90;99.90;;;;;;5034801;28;20380;-64
2021/03/16 17:48:21;;;;;;;;;;;5.90;99.90;;;;;;5034603;28;20434;-63
2021/03/16 17:50:48;;;;;;;;;;;5.90;99.90;;;;;;5034951;28;19952;-64
2021/03/16 17:53:14;;;;;;;;;;;5.80;99.90;;;;;;5034830;28;19925;-64
2021/03/16 17:55:40;;;;;;;;;;;5.70;99.90;;;;;;5034829;28;19925;-63
2021/03/16 17:58:06;;;;;;;;;;;5.50;99.90;;;;;;5034799;28;19933;-64
2021/03/16 18:00:32;;;;;;;;;;;5.50;99.90;;;;;;5035665;28;20043;-64
2021/03/16 18:02:58;;;;;;;;;;;5.50;99.90;;;;;;5036117;28;19925;-65
2021/03/16 18:05:25;;;;;;;;;;;5.50;99.90;;;;;;5036215;28;20405;-64
2021/03/16 18:07:52;;;;;;;;;;;5.30;99.90;;;;;;5035171;28;20388;-64
2021/03/16 18:10:18;;;;;;;;;;;5.30;99.90;;;;;;5038067;28;19932;-64
2021/03/16 18:12:44;;;;;;;;;;;5.30;99.90;;;;;;5037564;28;20375;-65
2021/03/16 18:15:11;;;;;;;;;;;5.20;99.90;;;;;;5037884;28;19951;-64
2021/03/16 18:17:37;;;;;;;;;;;5.20;99.90;;;;;;5039688;28;19929;-65
2021/03/16 18:20:04;;;;;;;;;;;5.10;99.90;;;;;;5040247;28;19929;-64
2021/03/16 18:22:30;;;;;;;;;;;5.10;99.90;;;;;;5040241;28;19971;-64
2021/03/16 18:24:57;;;;;;;;;;;5.00;99.90;;;;;;5035957;28;19925;-65
2021/03/16 18:27:24;;;;;;;;;;;5.00;99.90;;;;;;5035173;28;20372;-65
2021/03/16 18:29:50;;;;;;;;;;;5.00;99.90;;;;;;5035301;28;19932;-65
2021/03/16 18:32:16;;;;;;;;;;;5.00;99.90;;;;;;5035148;28;19952;-64
2021/03/16 18:34:42;;;;;;;;;;;5.10;99.90;;;;;;5034988;28;20024;-63
2021/03/16 18:37:08;;;;;;;;;;;5.10;99.90;;;;;;5034828;28;20401;-65
2021/03/16 18:39:34;;;;;;;;;;;5.00;99.90;;;;;;5035181;28;19925;-64
2021/03/16 18:42:01;;;;;;;;;;;5.00;99.90;;;;;;5035221;28;19925;-65
2021/03/16 18:44:29;;;;;;;;;;;5.00;99.90;;;;;;5034966;28;19929;-65
2021/03/16 18:46:55;;;;;;;;;;;5.10;99.90;;;;;;5034890;28;19948;-64
2021/03/16 18:49:21;;;;;;;;;;;5.10;99.90;;;;;;5034729;28;19979;-63
2021/03/16 18:51:47;;;;;;;;;;;5.10;99.90;;;;;;5035157;28;19929;-65
2021/03/16 18:54:13;;;;;;;;;;;5.10;99.90;;;;;;5034905;28;19933;-64
2021/03/16 18:56:39;;;;;;;;;;;5.00;99.90;;;;;;5035242;28;19932;-64
2021/03/16 18:59:06;;;;;;;;;;;5.00;99.90;;;;;;5034640;28;19926;-64
2021/03/16 19:01:32;;;;;;;;;;;5.00;99.90;;;;;;5035108;28;19932;-63
2021/03/16 19:03:58;;;;;;;;;;;5.10;99.90;;;;;;5035125;28;19932;-65
2021/03/16 19:06:24;;;;;;;;;;;5.10;99.90;;;;;;5034969;28;19925;-65
2021/03/16 19:08:50;;;;;;;;;;;5.20;99.90;;;;;;5034324;28;19925;-65
2021/03/16 19:11:16;;;;;;;;;;;5.30;99.90;;;;;;5034517;28;20419;-64
2021/03/16 19:13:42;;;;;;;;;;;5.30;99.90;;;;;;5034904;28;20311;-65
2021/03/16 19:16:09;;;;;;;;;;;5.30;99.90;;;;;;5034962;28;19995;-65
2021/03/16 19:18:35;;;;;;;;;;;5.30;99.90;;;;;;5034818;28;19929;-65
2021/03/16 19:21:01;;;;;;;;;;;5.40;99.90;;;;;;5039198;28;19987;-66
2021/03/16 19:23:27;;;;;;;;;;;5.40;99.90;;;;;;5039059;28;19929;-66
2021/03/16 19:25:53;;;;;;;;;;;5.40;99.90;;;;;;5040166;28;19925;-66